createdAt,value
2023-06-11T00:01:20.869Z,85.15
2023-06-11T00:03:53.837Z,86.24
2023-06-11T00:06:23.158Z,87.17
2023-06-11T00:08:54.598Z,87.31
2023-06-11T00:11:22.786Z,87.20
2023-06-11T00:13:50.705Z,87.50
2023-06-11T00:16:17.712Z,86.94
2023-06-11T00:18:44.397Z,87.12
2023-06-11T00:21:13.333Z,86.75
2023-06-11T00:23:39.859Z,87.48
2023-06-11T00:26:07.788Z,88.29
2023-06-11T00:28:35.220Z,87.31
2023-06-11T00:31:02.564Z,89.13
2023-06-11T00:33:29.061Z,89.36
2023-06-11T00:35:55.680Z,90.59
2023-06-11T00:38:22.141Z,89.92
2023-06-11T00:40:48.955Z,89.32
2023-06-11T00:43:18.456Z,88.62
2023-06-11T00:45:48.304Z,88.46
2023-06-11T00:48:14.817Z,89.82
2023-06-11T00:50:46.154Z,90.04
2023-06-11T00:53:13.643Z,89.74
2023-06-11T00:55:40.294Z,89.39
2023-06-11T00:58:14.675Z,89.30
2023-06-11T01:00:50.542Z,89.73
2023-06-11T01:03:22.491Z,90.07
2023-06-11T01:05:55.271Z,90.21
2023-06-11T01:08:23.686Z,89.79
2023-06-11T01:10:50.485Z,90.35
2023-06-11T01:13:16.984Z,91.15
2023-06-11T01:15:43.371Z,91.14
2023-06-11T01:18:23.945Z,91.13
2023-06-11T01:21:31.683Z,91.83
2023-06-11T01:24:22.979Z,91.58
2023-06-11T01:27:05.985Z,91.46
2023-06-11T01:29:36.662Z,91.42
2023-06-11T01:32:05.072Z,91.33
2023-06-11T01:34:32.528Z,91.49
2023-06-11T01:37:00.803Z,91.17
2023-06-11T01:39:27.324Z,90.72
2023-06-11T01:41:55.716Z,91.02
2023-06-11T01:44:23.211Z,91.44
2023-06-11T01:46:49.723Z,91.58
2023-06-11T01:49:16.271Z,92.08
2023-06-11T01:51:42.841Z,92.66
2023-06-11T01:54:09.245Z,92.54
2023-06-11T01:56:35.890Z,92.83
2023-06-11T01:59:02.276Z,93.25
2023-06-11T02:01:30.158Z,93.28
2023-06-11T02:03:57.030Z,92.77
2023-06-11T02:06:24.293Z,94.00
2023-06-11T02:08:51.076Z,93.78
2023-06-11T02:11:17.796Z,93.51
2023-06-11T02:13:44.349Z,93.86
2023-06-11T02:16:10.981Z,93.29
2023-06-11T02:18:37.424Z,93.00
2023-06-11T02:21:03.933Z,92.84
2023-06-11T02:23:30.923Z,93.20
2023-06-11T02:25:57.379Z,93.20
2023-06-11T02:28:23.758Z,93.58
2023-06-11T02:30:50.302Z,93.31
2023-06-11T02:33:16.728Z,93.90
2023-06-11T02:35:43.212Z,94.15
2023-06-11T02:38:09.657Z,94.01
2023-06-11T02:40:36.075Z,94.44
2023-06-11T02:43:02.698Z,94.00
2023-06-11T02:45:29.112Z,93.39
2023-06-11T02:47:55.630Z,93.48
2023-06-11T02:50:22.022Z,93.63
2023-06-11T02:52:48.449Z,93.21
2023-06-11T02:55:14.967Z,93.98
2023-06-11T02:57:41.413Z,93.80
2023-06-11T03:00:11.086Z,93.77
2023-06-11T03:02:37.975Z,93.91
2023-06-11T03:05:04.791Z,94.40
2023-06-11T03:07:31.178Z,93.82
2023-06-11T03:09:57.617Z,94.49
2023-06-11T03:12:24.060Z,93.72
2023-06-11T03:14:50.631Z,94.10
2023-06-11T03:17:17.120Z,94.17
2023-06-11T03:19:43.602Z,94.34
2023-06-11T03:22:09.982Z,94.34
2023-06-11T03:24:36.406Z,94.13
2023-06-11T03:27:02.805Z,95.24
2023-06-11T03:29:29.177Z,94.87
2023-06-11T03:31:55.920Z,94.56
2023-06-11T03:34:22.621Z,94.54
2023-06-11T03:36:49.126Z,94.70
2023-06-11T03:39:15.727Z,94.10
2023-06-11T03:41:42.200Z,93.56
2023-06-11T03:44:08.792Z,93.84
2023-06-11T03:46:35.440Z,93.45
2023-06-11T03:49:02.799Z,93.61
2023-06-11T03:51:29.257Z,93.20
2023-06-11T03:53:55.717Z,93.61
2023-06-11T03:56:22.198Z,93.78
2023-06-11T03:58:48.658Z,92.29
2023-06-11T04:01:15.390Z,89.33
2023-06-11T04:03:41.902Z,89.61
2023-06-11T04:06:08.380Z,91.91
2023-06-11T04:08:34.812Z,92.21
2023-06-11T04:11:01.396Z,92.41
2023-06-11T04:13:27.866Z,92.21
2023-06-11T04:15:54.710Z,91.84
2023-06-11T04:18:21.633Z,92.58
2023-06-11T04:20:48.095Z,92.69
2023-06-11T04:23:14.722Z,92.31
2023-06-11T04:25:41.160Z,92.91
2023-06-11T04:28:09.065Z,92.39
2023-06-11T04:30:35.637Z,93.30
2023-06-11T04:33:04.589Z,92.97
2023-06-11T04:35:34.293Z,93.02
2023-06-11T04:38:04.168Z,92.52
2023-06-11T04:40:31.474Z,93.19
2023-06-11T04:42:58.817Z,93.19
2023-06-11T04:45:27.844Z,93.08
2023-06-11T04:47:54.751Z,93.42
2023-06-11T04:50:23.932Z,93.43
2023-06-11T04:52:53.776Z,92.81
2023-06-11T04:55:25.935Z,91.83
2023-06-11T04:57:52.985Z,90.65
2023-06-11T05:00:19.547Z,90.80
2023-06-11T05:02:46.080Z,90.05
2023-06-11T05:05:13.540Z,90.38
2023-06-11T05:07:40.753Z,90.08
2023-06-11T05:10:07.803Z,88.38
2023-06-11T05:12:34.351Z,87.81
2023-06-11T05:15:00.998Z,88.03
2023-06-11T05:17:28.638Z,87.53
2023-06-11T05:19:55.190Z,86.85
2023-06-11T05:22:21.829Z,85.30
2023-06-11T05:24:48.704Z,84.31
2023-06-11T05:27:16.136Z,83.23
2023-06-11T05:29:45.760Z,81.27
2023-06-11T05:32:12.868Z,79.55
2023-06-11T05:34:40.850Z,78.03
2023-06-11T05:37:07.562Z,76.53
2023-06-11T05:39:34.070Z,75.14
2023-06-11T05:42:00.496Z,73.96
2023-06-11T05:44:26.991Z,71.11
2023-06-11T05:46:53.633Z,70.28
2023-06-11T05:49:20.232Z,70.53
2023-06-11T05:51:46.643Z,69.60
2023-06-11T05:54:13.080Z,70.73
2023-06-11T05:56:39.710Z,72.17
2023-06-11T05:59:08.909Z,70.79
2023-06-11T06:01:36.187Z,70.29
2023-06-11T06:04:02.872Z,67.24
2023-06-11T06:06:31.087Z,66.05
2023-06-11T06:08:57.683Z,63.77
2023-06-11T06:11:24.126Z,62.04
2023-06-11T06:13:50.627Z,62.92
2023-06-11T06:16:17.074Z,60.33
2023-06-11T06:18:45.273Z,59.85
2023-06-11T06:21:11.696Z,57.03
2023-06-11T06:23:38.118Z,53.29
2023-06-11T06:26:04.880Z,52.50
2023-06-11T06:28:33.147Z,51.64
2023-06-11T06:30:59.682Z,49.51
2023-06-11T06:33:26.132Z,48.27
2023-06-11T06:35:52.593Z,50.38
2023-06-11T06:38:18.998Z,51.78
2023-06-11T06:40:45.440Z,51.50
2023-06-11T06:43:11.865Z,50.46
2023-06-11T06:45:39.304Z,49.86
2023-06-11T06:48:06.516Z,50.60
2023-06-11T06:50:33.020Z,49.03
2023-06-11T06:53:00.058Z,50.12
2023-06-11T06:55:26.513Z,50.51
2023-06-11T06:57:52.967Z,50.39
2023-06-11T07:00:19.699Z,49.99
2023-06-11T07:02:46.916Z,50.24
2023-06-11T07:05:13.926Z,49.06
2023-06-11T07:07:43.371Z,51.22
2023-06-11T07:10:10.803Z,50.15
2023-06-11T07:12:37.627Z,50.19
2023-06-11T07:15:05.426Z,49.35
2023-06-11T07:17:31.973Z,46.69
2023-06-11T07:19:58.540Z,47.61
2023-06-11T07:22:25.140Z,46.11
2023-06-11T07:24:52.100Z,46.01
2023-06-11T07:27:18.755Z,45.89
2023-06-11T07:29:45.219Z,46.16
2023-06-11T07:32:11.653Z,46.53
2023-06-11T07:34:38.118Z,45.85
2023-06-11T07:37:05.042Z,45.37
2023-06-11T07:39:31.512Z,45.90
2023-06-11T07:41:58.048Z,46.44
2023-06-11T07:44:24.496Z,46.00
2023-06-11T07:46:51.424Z,46.87
2023-06-11T07:49:18.113Z,46.20
2023-06-11T07:51:46.397Z,45.57
2023-06-11T07:54:13.120Z,44.39
2023-06-11T07:56:39.681Z,44.61
2023-06-11T07:59:08.058Z,44.78
2023-06-11T08:01:37.455Z,45.43
2023-06-11T08:04:06.116Z,46.21
2023-06-11T08:06:32.842Z,45.71
2023-06-11T08:08:59.270Z,46.23
2023-06-11T08:11:26.259Z,45.58
2023-06-11T08:13:52.880Z,43.98
2023-06-11T08:16:19.625Z,45.29
2023-06-11T08:18:46.264Z,45.90
2023-06-11T08:21:12.701Z,44.97
2023-06-11T08:23:40.293Z,44.00
2023-06-11T08:26:07.665Z,45.78
2023-06-11T08:28:35.986Z,45.10
2023-06-11T08:31:02.603Z,44.51
2023-06-11T08:33:29.267Z,43.15
2023-06-11T08:35:55.989Z,44.67
2023-06-11T08:38:22.570Z,45.06
2023-06-11T08:40:49.285Z,43.63
2023-06-11T08:43:15.805Z,41.88
2023-06-11T08:45:42.816Z,41.85
2023-06-11T08:48:10.206Z,40.60
2023-06-11T08:50:37.307Z,40.58
2023-06-11T08:53:05.836Z,40.97
2023-06-11T08:55:32.286Z,42.32
2023-06-11T08:57:58.853Z,41.32
2023-06-11T09:00:25.554Z,42.85
2023-06-11T09:02:52.703Z,43.51
2023-06-11T09:05:19.651Z,43.51
2023-06-11T09:07:53.089Z,39.11
2023-06-11T09:10:20.795Z,36.72
2023-06-11T09:12:47.695Z,37.72
2023-06-11T09:15:14.769Z,39.06
2023-06-11T09:17:43.918Z,37.29
2023-06-11T09:20:13.079Z,36.84
2023-06-11T09:22:42.591Z,36.38
2023-06-11T09:25:19.099Z,36.43
2023-06-11T09:27:47.024Z,35.82
2023-06-11T09:30:17.598Z,34.95
2023-06-11T09:32:46.602Z,37.06
2023-06-11T09:35:14.985Z,36.51
2023-06-11T09:37:48.345Z,37.78
2023-06-11T09:40:20.851Z,37.54
2023-06-11T09:42:48.885Z,36.47
2023-06-11T09:45:20.345Z,37.29
2023-06-11T09:47:48.116Z,38.90
2023-06-11T09:50:17.385Z,37.24
2023-06-11T09:52:45.719Z,37.33
2023-06-11T09:55:12.954Z,37.06
2023-06-11T09:57:40.353Z,38.44
2023-06-11T10:00:10.834Z,37.91
2023-06-11T10:02:39.770Z,38.15
2023-06-11T10:05:08.489Z,37.76
2023-06-11T10:07:45.684Z,37.76
2023-06-11T10:10:15.220Z,36.39
2023-06-11T10:12:41.918Z,36.62
2023-06-11T10:15:12.925Z,39.31
2023-06-11T10:17:49.490Z,37.89
2023-06-11T10:20:27.287Z,37.24
2023-06-11T10:23:07.768Z,36.69
2023-06-11T10:25:36.024Z,36.07
2023-06-11T10:28:02.821Z,37.91
2023-06-11T10:30:29.700Z,34.67
2023-06-11T10:32:57.855Z,36.93
2023-06-11T10:35:26.596Z,34.65
2023-06-11T10:38:05.947Z,34.81
2023-06-11T10:40:37.341Z,34.87
2023-06-11T10:43:15.464Z,35.47
2023-06-11T10:45:42.197Z,35.93
2023-06-11T10:48:08.864Z,34.01
2023-06-11T10:50:36.960Z,34.84
2023-06-11T10:53:11.478Z,33.52
2023-06-11T10:55:43.595Z,32.61
2023-06-11T10:58:19.410Z,32.74
2023-06-11T11:00:46.362Z,31.04
2023-06-11T11:03:13.521Z,31.62
2023-06-11T11:05:42.271Z,32.44
2023-06-11T11:08:08.865Z,31.15
2023-06-11T11:10:35.515Z,30.59
2023-06-11T11:13:04.373Z,31.80
2023-06-11T11:15:31.662Z,31.12
2023-06-11T11:17:58.403Z,32.91
2023-06-11T11:20:25.112Z,30.08
2023-06-11T11:22:55.827Z,32.90
2023-06-11T11:25:25.764Z,31.66
2023-06-11T11:27:52.234Z,31.68
2023-06-11T11:30:19.332Z,31.82
2023-06-11T11:32:46.379Z,32.13
2023-06-11T11:35:15.823Z,31.54
2023-06-11T11:37:42.592Z,31.55
2023-06-11T11:40:10.228Z,30.58
2023-06-11T11:42:56.692Z,30.42
2023-06-11T11:45:30.570Z,30.68
2023-06-11T11:47:57.313Z,32.13
2023-06-11T11:50:28.566Z,30.87
2023-06-11T11:53:03.932Z,29.76
2023-06-11T11:56:04.420Z,27.82
2023-06-11T11:58:42.428Z,28.53
2023-06-11T12:01:22.835Z,27.43
2023-06-11T12:04:03.115Z,28.21
2023-06-11T12:06:31.478Z,27.67
2023-06-11T12:08:58.389Z,27.64
2023-06-11T12:11:25.236Z,26.55
2023-06-11T12:13:51.806Z,29.53
2023-06-11T12:16:18.501Z,28.95
2023-06-11T12:18:45.031Z,28.46
2023-06-11T12:21:11.798Z,28.23
2023-06-11T12:23:38.834Z,27.49
2023-06-11T12:26:05.283Z,27.11
2023-06-11T12:28:33.799Z,26.17
2023-06-11T12:31:00.316Z,25.83
2023-06-11T12:33:26.835Z,26.51
2023-06-11T12:35:53.332Z,28.33
2023-06-11T12:38:19.778Z,28.09
2023-06-11T12:40:46.268Z,28.75
2023-06-11T12:43:12.626Z,28.49
2023-06-11T12:45:39.179Z,27.41
2023-06-11T12:48:06.209Z,28.91
2023-06-11T12:50:32.809Z,28.01
2023-06-11T12:53:00.313Z,28.00
2023-06-11T12:55:26.848Z,28.05
2023-06-11T12:57:53.361Z,28.91
2023-06-11T13:00:20.057Z,28.41
2023-06-11T13:02:47.101Z,27.09
2023-06-11T13:05:13.597Z,26.72
2023-06-11T13:07:40.028Z,26.69
2023-06-11T13:10:06.836Z,24.24
2023-06-11T13:12:33.507Z,25.56
2023-06-11T13:15:00.192Z,27.24
2023-06-11T13:17:27.155Z,25.84
2023-06-11T13:19:55.859Z,27.92
2023-06-11T13:22:22.972Z,29.59
2023-06-11T13:24:49.877Z,29.78
2023-06-11T13:27:16.468Z,29.01
2023-06-11T13:29:43.901Z,28.77
2023-06-11T13:32:10.573Z,29.69
2023-06-11T13:34:37.320Z,30.37
2023-06-11T13:37:04.491Z,29.66
2023-06-11T13:39:31.262Z,29.01
2023-06-11T13:41:57.746Z,28.80
2023-06-11T13:44:25.024Z,27.62
2023-06-11T13:46:51.934Z,26.80
2023-06-11T13:49:18.426Z,27.42
2023-06-11T13:51:44.967Z,29.56
2023-06-11T13:54:11.900Z,29.82
2023-06-11T13:56:39.069Z,29.44
2023-06-11T13:59:05.548Z,29.85
2023-06-11T14:01:32.061Z,30.73
2023-06-11T14:03:58.675Z,29.28
2023-06-11T14:06:26.184Z,28.64
2023-06-11T14:08:52.708Z,28.22
2023-06-11T14:11:19.341Z,29.02
2023-06-11T14:13:46.118Z,29.12
2023-06-11T14:16:12.926Z,28.52
2023-06-11T14:18:39.500Z,28.17
2023-06-11T14:21:06.081Z,27.75
2023-06-11T14:23:32.788Z,28.06
2023-06-11T14:25:59.343Z,27.58
2023-06-11T14:28:26.076Z,26.79
2023-06-11T14:30:54.022Z,28.17
2023-06-11T14:33:21.103Z,29.41
2023-06-11T14:35:48.072Z,27.99
2023-06-11T14:38:14.533Z,27.07
2023-06-11T14:40:41.495Z,27.04
2023-06-11T14:43:08.012Z,27.40
2023-06-11T14:45:34.507Z,28.14
2023-06-11T14:48:01.193Z,28.28
2023-06-11T14:50:27.833Z,27.88
2023-06-11T14:52:54.292Z,27.71
2023-06-11T14:55:21.030Z,26.89
2023-06-11T14:57:47.568Z,26.94
2023-06-11T15:00:14.938Z,28.36
2023-06-11T15:02:41.764Z,27.32
2023-06-11T15:05:08.913Z,27.71
2023-06-11T15:07:36.284Z,27.76
2023-06-11T15:10:05.201Z,26.42
2023-06-11T15:12:32.102Z,27.88
2023-06-11T15:15:01.914Z,27.52
2023-06-11T15:17:32.987Z,26.81
2023-06-11T15:20:00.271Z,26.19
2023-06-11T15:22:27.148Z,26.97
2023-06-11T15:24:53.657Z,26.97
2023-06-11T15:27:20.231Z,27.49
2023-06-11T15:29:46.851Z,28.31
2023-06-11T15:32:20.570Z,27.81
2023-06-11T15:34:47.187Z,27.96
2023-06-11T15:37:13.648Z,27.19
2023-06-11T15:39:40.060Z,28.61
2023-06-11T15:42:06.633Z,28.10
2023-06-11T15:44:33.093Z,29.32
2023-06-11T15:46:59.721Z,28.48
2023-06-11T15:49:26.181Z,29.18
2023-06-11T15:51:53.075Z,28.54
2023-06-11T15:54:19.595Z,28.16
2023-06-11T15:56:49.070Z,28.27
2023-06-11T15:59:15.705Z,28.43
2023-06-11T16:01:43.727Z,29.36
2023-06-11T16:04:10.669Z,30.22
2023-06-11T16:06:37.318Z,29.09
2023-06-11T16:09:04.006Z,30.09
2023-06-11T16:11:30.717Z,28.84
2023-06-11T16:13:57.196Z,29.08
2023-06-11T16:16:23.729Z,28.43
2023-06-11T16:18:50.335Z,28.28
2023-06-11T16:21:17.034Z,27.74
2023-06-11T16:23:43.601Z,28.73
2023-06-11T16:26:10.136Z,28.02
2023-06-11T16:28:36.579Z,27.78
2023-06-11T16:31:03.313Z,28.11
2023-06-11T16:33:47.691Z,28.50
2023-06-11T16:36:19.635Z,28.79
2023-06-11T16:38:46.112Z,28.52
2023-06-11T16:41:12.623Z,27.53
2023-06-11T16:43:41.413Z,27.19
2023-06-11T16:46:09.507Z,27.56
2023-06-11T16:48:36.132Z,27.57
2023-06-11T16:51:02.671Z,28.41
2023-06-11T16:53:29.134Z,29.05
2023-06-11T16:55:55.783Z,30.11
2023-06-11T16:58:22.171Z,29.57
2023-06-11T17:00:48.974Z,29.12
2023-06-11T17:03:15.646Z,29.53
2023-06-11T17:05:42.206Z,30.09
2023-06-11T17:08:08.781Z,31.55
2023-06-11T17:10:36.356Z,28.21
2023-06-11T17:13:03.206Z,28.75
2023-06-11T17:15:29.709Z,28.25
2023-06-11T17:17:56.265Z,29.15
2023-06-11T17:20:22.959Z,30.09
2023-06-11T17:22:51.722Z,30.17
2023-06-11T17:25:19.043Z,30.41
2023-06-11T17:27:45.731Z,30.52
2023-06-11T17:30:13.118Z,29.97
2023-06-11T17:32:39.923Z,29.98
2023-06-11T17:35:08.177Z,30.93
2023-06-11T17:37:34.801Z,30.48
2023-06-11T17:40:01.338Z,30.31
2023-06-11T17:42:27.964Z,30.64
2023-06-11T17:44:54.871Z,29.95
2023-06-11T17:47:21.375Z,30.45
2023-06-11T17:49:49.852Z,30.17
2023-06-11T17:52:16.968Z,30.87
2023-06-11T17:54:43.844Z,30.81
2023-06-11T17:57:11.458Z,31.10
2023-06-11T17:59:38.063Z,31.38
2023-06-11T18:02:04.943Z,31.29
2023-06-11T18:04:31.396Z,31.71
2023-06-11T18:06:57.878Z,31.83
2023-06-11T18:09:24.459Z,32.17
2023-06-11T18:11:51.148Z,32.02
2023-06-11T18:14:17.815Z,31.70
2023-06-11T18:16:44.407Z,32.38
2023-06-11T18:19:11.069Z,32.76
2023-06-11T18:21:38.284Z,32.58
2023-06-11T18:24:05.407Z,33.46
2023-06-11T18:26:35.519Z,33.79
2023-06-11T18:29:02.488Z,34.01
2023-06-11T18:31:29.109Z,34.10
2023-06-11T18:33:56.005Z,34.36
2023-06-11T18:36:22.615Z,34.20
2023-06-11T18:38:49.165Z,34.62
2023-06-11T18:41:17.810Z,34.67
2023-06-11T18:43:44.239Z,35.06
2023-06-11T18:46:10.751Z,35.03
2023-06-11T18:48:37.254Z,35.03
2023-06-11T18:51:03.737Z,34.69
2023-06-11T18:53:30.360Z,35.18
2023-06-11T18:55:56.892Z,35.82
2023-06-11T18:58:23.297Z,36.41
2023-06-11T19:00:49.942Z,36.50
2023-06-11T19:03:17.378Z,37.13
2023-06-11T19:05:44.079Z,37.62
2023-06-11T19:08:10.625Z,38.19
2023-06-11T19:10:37.181Z,38.64
2023-06-11T19:13:05.780Z,38.97
2023-06-11T19:15:32.483Z,39.32
2023-06-11T19:17:59.995Z,40.50
2023-06-11T19:20:28.257Z,40.88
2023-06-11T19:22:55.908Z,41.22
2023-06-11T19:25:22.551Z,42.00
2023-06-11T19:27:49.137Z,43.13
2023-06-11T19:30:16.015Z,42.79
2023-06-11T19:32:43.227Z,43.11
2023-06-11T19:35:09.864Z,43.24
2023-06-11T19:37:36.369Z,43.55
2023-06-11T19:40:03.700Z,43.65
2023-06-11T19:42:30.186Z,44.22
2023-06-11T19:44:56.895Z,44.28
2023-06-11T19:47:23.562Z,44.36
2023-06-11T19:49:50.541Z,46.94
2023-06-11T19:52:17.060Z,47.77
2023-06-11T19:54:51.206Z,49.94
2023-06-11T19:57:20.036Z,49.69
2023-06-11T19:59:48.004Z,50.93
2023-06-11T20:02:14.931Z,51.30
2023-06-11T20:04:41.579Z,51.73
2023-06-11T20:07:10.024Z,54.52
2023-06-11T20:09:36.639Z,53.70
2023-06-11T20:12:09.465Z,54.91
2023-06-11T20:14:37.120Z,54.77
2023-06-11T20:17:04.705Z,55.41
2023-06-11T20:19:31.611Z,55.65
2023-06-11T20:21:59.927Z,56.03
2023-06-11T20:24:27.262Z,56.32
2023-06-11T20:26:54.646Z,57.26
2023-06-11T20:29:23.043Z,58.40
2023-06-11T20:31:49.861Z,58.36
2023-06-11T20:34:17.310Z,59.03
2023-06-11T20:36:44.136Z,58.19
2023-06-11T20:39:10.752Z,59.49
2023-06-11T20:41:37.245Z,60.37
2023-06-11T20:44:04.039Z,60.33
2023-06-11T20:46:30.942Z,59.44
2023-06-11T20:48:58.131Z,60.55
2023-06-11T20:51:24.629Z,60.35
2023-06-11T20:53:51.188Z,60.27
2023-06-11T20:56:19.998Z,59.38
2023-06-11T20:58:46.782Z,60.58
2023-06-11T21:01:13.872Z,60.45
2023-06-11T21:03:40.688Z,60.92
2023-06-11T21:06:07.731Z,62.21
2023-06-11T21:08:34.255Z,61.65
2023-06-11T21:11:01.102Z,62.89
2023-06-11T21:13:27.712Z,63.43
2023-06-11T21:15:54.334Z,62.81
2023-06-11T21:18:20.851Z,64.65
2023-06-11T21:20:47.397Z,64.02
2023-06-11T21:23:13.973Z,64.82
2023-06-11T21:25:40.502Z,65.19
2023-06-11T21:28:07.159Z,64.83
2023-06-11T21:30:34.880Z,65.25
2023-06-11T21:33:01.381Z,65.41
2023-06-11T21:35:27.993Z,66.14
2023-06-11T21:37:54.508Z,67.77
2023-06-11T21:40:20.992Z,67.55
2023-06-11T21:42:47.467Z,67.80
2023-06-11T21:45:13.951Z,67.59
2023-06-11T21:47:40.486Z,67.60
2023-06-11T21:50:07.387Z,67.51
2023-06-11T21:52:38.604Z,67.87
2023-06-11T21:55:07.267Z,68.69
2023-06-11T21:57:33.979Z,69.44
2023-06-11T22:00:05.552Z,68.71
2023-06-11T22:02:32.158Z,68.92
2023-06-11T22:04:58.669Z,69.01
2023-06-11T22:07:25.082Z,69.38
2023-06-11T22:09:51.513Z,69.03
2023-06-11T22:12:20.383Z,69.46
2023-06-11T22:14:46.849Z,69.30
2023-06-11T22:17:14.799Z,69.38
2023-06-11T22:19:41.448Z,70.28
2023-06-11T22:22:11.319Z,69.57
2023-06-11T22:24:41.722Z,70.38
2023-06-11T22:27:09.104Z,69.58
2023-06-11T22:29:35.716Z,70.28
2023-06-11T22:32:02.290Z,70.44
2023-06-11T22:34:28.854Z,70.43
2023-06-11T22:36:55.521Z,70.79
2023-06-11T22:39:21.987Z,71.28
2023-06-11T22:41:48.712Z,71.44
2023-06-11T22:44:15.536Z,71.07
2023-06-11T22:46:42.015Z,71.18
2023-06-11T22:49:08.989Z,70.84
2023-06-11T22:51:37.575Z,71.17
2023-06-11T22:54:04.940Z,71.06
2023-06-11T22:56:31.694Z,71.47
2023-06-11T22:58:58.174Z,72.03
2023-06-11T23:01:24.632Z,71.99
2023-06-11T23:03:51.915Z,71.83
2023-06-11T23:06:18.535Z,71.53
2023-06-11T23:08:45.403Z,71.91
2023-06-11T23:11:11.885Z,71.65
2023-06-11T23:13:38.296Z,72.60
2023-06-11T23:16:05.074Z,72.39
2023-06-11T23:18:32.835Z,72.35
2023-06-11T23:21:00.442Z,72.75
2023-06-11T23:23:31.230Z,73.09
2023-06-11T23:25:58.815Z,72.88
2023-06-11T23:28:25.998Z,73.20
2023-06-11T23:30:53.714Z,73.32
2023-06-11T23:33:21.366Z,73.96
2023-06-11T23:35:47.953Z,73.58
2023-06-11T23:38:14.514Z,73.62
2023-06-11T23:40:41.140Z,73.61
2023-06-11T23:43:07.690Z,73.73
2023-06-11T23:45:34.220Z,73.85
2023-06-11T23:48:01.220Z,73.79
2023-06-11T23:50:27.803Z,74.17
2023-06-11T23:52:54.204Z,74.39
2023-06-11T23:55:22.810Z,74.69
2023-06-11T23:58:21.113Z,74.96
